sensor_id;sensor_type;location;lat;lon;timestamp;pressure;altitude;pressure_sealevel;temperature;humidity
59513;BME280;45330;51.634;5.562;2023-06-24T00:02:25;102337.28;;;18.60;100.00
59513;BME280;45330;51.634;5.562;2023-06-24T00:04:51;102337.34;;;18.57;100.00
59513;BME280;45330;51.634;5.562;2023-06-24T00:07:17;102328.56;;;18.58;100.00
59513;BME280;45330;51.634;5.562;2023-06-24T00:09:42;102334.63;;;18.62;100.00
59513;BME280;45330;51.634;5.562;2023-06-24T00:12:08;102334.66;;;18.60;100.00
59513;BME280;45330;51.634;5.562;2023-06-24T00:14:33;102341.72;;;18.60;100.00
59513;BME280;45330;51.634;5.562;2023-06-24T00:16:59;102343.56;;;18.53;100.00
59513;BME280;45330;51.634;5.562;2023-06-24T00:19:26;102356.88;;;18.45;100.00
59513;BME280;45330;51.634;5.562;2023-06-24T00:21:52;102342.97;;;18.34;100.00
59513;BME280;45330;51.634;5.562;2023-06-24T00:24:19;102363.22;;;18.30;100.00
59513;BME280;45330;51.634;5.562;2023-06-24T00:26:48;102351.84;;;18.27;100.00
59513;BME280;45330;51.634;5.562;2023-06-24T00:29:14;102363.38;;;18.18;100.00
59513;BME280;45330;51.634;5.562;2023-06-24T00:31:40;102352.97;;;18.10;100.00
59513;BME280;45330;51.634;5.562;2023-06-24T00:34:06;102361.88;;;18.02;100.00
59513;BME280;45330;51.634;5.562;2023-06-24T00:36:32;102353.06;;;18.03;100.00
59513;BME280;45330;51.634;5.562;2023-06-24T00:38:58;102361.00;;;17.99;100.00
59513;BME280;45330;51.634;5.562;2023-06-24T00:41:28;102360.09;;;18.02;100.00
59513;BME280;45330;51.634;5.562;2023-06-24T00:43:54;102357.53;;;17.94;100.00
59513;BME280;45330;51.634;5.562;2023-06-24T00:46:23;102363.69;;;17.96;100.00
59513;BME280;45330;51.634;5.562;2023-06-24T00:48:51;102377.59;;;18.08;100.00
59513;BME280;45330;51.634;5.562;2023-06-24T00:51:16;102366.28;;;17.99;100.00
59513;BME280;45330;51.634;5.562;2023-06-24T00:53:42;102382.84;;;18.08;100.00
59513;BME280;45330;51.634;5.562;2023-06-24T00:56:07;102383.78;;;18.04;100.00
59513;BME280;45330;51.634;5.562;2023-06-24T00:58:34;102376.84;;;17.98;100.00
59513;BME280;45330;51.634;5.562;2023-06-24T01:01:00;102364.66;;;17.88;100.00
59513;BME280;45330;51.634;5.562;2023-06-24T01:03:27;102369.91;;;17.91;100.00
59513;BME280;45330;51.634;5.562;2023-06-24T01:05:54;102358.53;;;17.84;100.00
59513;BME280;45330;51.634;5.562;2023-06-24T01:08:19;102358.63;;;17.75;100.00
59513;BME280;45330;51.634;5.562;2023-06-24T01:10:49;102354.31;;;17.67;100.00
59513;BME280;45330;51.634;5.562;2023-06-24T01:13:16;102366.66;;;17.65;100.00
59513;BME280;45330;51.634;5.562;2023-06-24T01:15:41;102355.28;;;17.60;100.00
59513;BME280;45330;51.634;5.562;2023-06-24T01:20:58;102352.81;;;17.49;100.00
59513;BME280;45330;51.634;5.562;2023-06-24T01:31:59;102346.81;;;17.34;100.00
59513;BME280;45330;51.634;5.562;2023-06-24T01:37:21;102346.00;;;17.30;100.00
59513;BME280;45330;51.634;5.562;2023-06-24T01:39:57;102347.75;;;17.26;100.00
59513;BME280;45330;51.634;5.562;2023-06-24T01:42:26;102349.53;;;17.23;100.00
59513;BME280;45330;51.634;5.562;2023-06-24T01:44:54;102329.53;;;17.08;100.00
59513;BME280;45330;51.634;5.562;2023-06-24T01:47:23;102340.88;;;17.11;100.00
59513;BME280;45330;51.634;5.562;2023-06-24T01:49:53;102338.25;;;17.10;100.00
59513;BME280;45330;51.634;5.562;2023-06-24T01:52:21;102327.88;;;16.96;100.00
59513;BME280;45330;51.634;5.562;2023-06-24T01:54:49;102340.13;;;16.98;100.00
59513;BME280;45330;51.634;5.562;2023-06-24T01:57:17;102329.69;;;16.83;100.00
59513;BME280;45330;51.634;5.562;2023-06-24T01:59:45;102337.59;;;16.83;100.00
59513;BME280;45330;51.634;5.562;2023-06-24T02:02:12;102328.97;;;16.67;100.00
59513;BME280;45330;51.634;5.562;2023-06-24T02:04:39;102319.34;;;16.64;100.00
59513;BME280;45330;51.634;5.562;2023-06-24T02:07:06;102315.03;;;16.56;100.00
59513;BME280;45330;51.634;5.562;2023-06-24T02:09:33;102315.06;;;16.53;100.00
59513;BME280;45330;51.634;5.562;2023-06-24T02:12:02;102323.78;;;16.55;100.00
59513;BME280;45330;51.634;5.562;2023-06-24T02:14:29;102321.16;;;16.56;100.00
59513;BME280;45330;51.634;5.562;2023-06-24T02:16:56;102328.13;;;16.62;100.00
59513;BME280;45330;51.634;5.562;2023-06-24T02:19:25;102322.88;;;16.62;100.00
59513;BME280;45330;51.634;5.562;2023-06-24T02:21:53;102330.72;;;16.67;100.00
59513;BME280;45330;51.634;5.562;2023-06-24T02:24:19;102310.69;;;16.52;100.00
59513;BME280;45330;51.634;5.562;2023-06-24T02:26:46;102318.53;;;16.55;100.00
59513;BME280;45330;51.634;5.562;2023-06-24T02:29:13;102331.72;;;16.50;100.00
59513;BME280;45330;51.634;5.562;2023-06-24T02:31:38;102325.56;;;16.50;100.00
59513;BME280;45330;51.634;5.562;2023-06-24T02:34:04;102327.34;;;16.49;100.00
59513;BME280;45330;51.634;5.562;2023-06-24T02:36:30;102323.88;;;16.42;100.00
59513;BME280;45330;51.634;5.562;2023-06-24T02:38:55;102310.81;;;16.28;100.00
59513;BME280;45330;51.634;5.562;2023-06-24T02:41:21;102304.75;;;16.25;100.00
59513;BME280;45330;51.634;5.562;2023-06-24T02:43:46;102317.88;;;16.26;100.00
59513;BME280;45330;51.634;5.562;2023-06-24T02:46:12;102335.41;;;16.24;100.00
59513;BME280;45330;51.634;5.562;2023-06-24T02:48:39;102318.81;;;16.10;100.00
59513;BME280;45330;51.634;5.562;2023-06-24T02:51:07;102330.19;;;16.17;100.00
59513;BME280;45330;51.634;5.562;2023-06-24T02:53:32;102324.97;;;16.09;100.00
59513;BME280;45330;51.634;5.562;2023-06-24T02:55:58;102328.50;;;16.03;100.00
59513;BME280;45330;51.634;5.562;2023-06-24T02:58:24;102332.03;;;16.01;100.00
59513;BME280;45330;51.634;5.562;2023-06-24T03:01:01;102328.50;;;16.00;100.00
59513;BME280;45330;51.634;5.562;2023-06-24T03:03:28;102318.06;;;15.86;100.00
59513;BME280;45330;51.634;5.562;2023-06-24T03:05:54;102320.69;;;15.78;100.00
59513;BME280;45330;51.634;5.562;2023-06-24T03:08:22;102339.06;;;15.92;100.00
59513;BME280;45330;51.634;5.562;2023-06-24T03:10:48;102339.06;;;15.86;100.00
59513;BME280;45330;51.634;5.562;2023-06-24T03:13:14;102342.56;;;15.88;100.00
59513;BME280;45330;51.634;5.562;2023-06-24T03:15:39;102337.34;;;15.85;100.00
59513;BME280;45330;51.634;5.562;2023-06-24T03:18:04;102348.72;;;15.81;100.00
59513;BME280;45330;51.634;5.562;2023-06-24T03:20:30;102339.09;;;15.80;100.00
59513;BME280;45330;51.634;5.562;2023-06-24T03:23:03;102336.50;;;15.66;100.00
59513;BME280;45330;51.634;5.562;2023-06-24T03:25:29;102346.97;;;15.68;100.00
59513;BME280;45330;51.634;5.562;2023-06-24T03:27:54;102333.88;;;15.61;100.00
59513;BME280;45330;51.634;5.562;2023-06-24T03:30:19;102332.13;;;15.60;100.00
59513;BME280;45330;51.634;5.562;2023-06-24T03:32:45;102339.16;;;15.60;100.00
59513;BME280;45330;51.634;5.562;2023-06-24T03:35:12;102335.63;;;15.58;100.00
59513;BME280;45330;51.634;5.562;2023-06-24T03:37:37;102333.03;;;15.56;100.00
59513;BME280;45330;51.634;5.562;2023-06-24T03:40:03;102342.66;;;15.57;100.00
59513;BME280;45330;51.634;5.562;2023-06-24T03:42:29;102326.03;;;15.49;100.00
59513;BME280;45330;51.634;5.562;2023-06-24T03:44:54;102343.50;;;15.59;100.00
59513;BME280;45330;51.634;5.562;2023-06-24T03:47:20;102347.88;;;15.60;100.00
59513;BME280;45330;51.634;5.562;2023-06-24T03:49:45;102347.00;;;15.61;100.00
59513;BME280;45330;51.634;5.562;2023-06-24T03:52:11;102341.78;;;15.60;100.00
59513;BME280;45330;51.634;5.562;2023-06-24T03:54:36;102355.75;;;15.62;100.00
59513;BME280;45330;51.634;5.562;2023-06-24T03:57:02;102326.06;;;15.46;100.00
59513;BME280;45330;51.634;5.562;2023-06-24T03:59:27;102336.53;;;15.54;100.00
59513;BME280;45330;51.634;5.562;2023-06-24T04:01:53;102336.53;;;15.57;100.00
59513;BME280;45330;51.634;5.562;2023-06-24T04:04:19;102354.84;;;15.68;100.00
59513;BME280;45330;51.634;5.562;2023-06-24T04:06:44;102357.50;;;15.65;100.00
59513;BME280;45330;51.634;5.562;2023-06-24T04:09:10;102357.47;;;15.69;100.00
59513;BME280;45330;51.634;5.562;2023-06-24T04:11:35;102355.72;;;15.71;100.00
59513;BME280;45330;51.634;5.562;2023-06-24T04:14:01;102358.34;;;15.73;100.00
59513;BME280;45330;51.634;5.562;2023-06-24T04:16:27;102348.72;;;15.69;100.00
59513;BME280;45330;51.634;5.562;2023-06-24T04:18:52;102358.31;;;15.76;100.00
59513;BME280;45330;51.634;5.562;2023-06-24T04:21:17;102346.09;;;15.72;100.00
59513;BME280;45330;51.634;5.562;2023-06-24T04:23:44;102357.44;;;15.85;100.00
59513;BME280;45330;51.634;5.562;2023-06-24T04:26:09;102344.34;;;15.80;100.00
59513;BME280;45330;51.634;5.562;2023-06-24T04:28:35;102360.06;;;15.92;100.00
59513;BME280;45330;51.634;5.562;2023-06-24T04:31:00;102351.03;;;16.46;100.00
59513;BME280;45330;51.634;5.562;2023-06-24T04:33:25;102356.50;;;18.08;100.00
59513;BME280;45330;51.634;5.562;2023-06-24T04:35:51;102352.03;;;19.72;100.00
59513;BME280;45330;51.634;5.562;2023-06-24T04:38:16;102346.56;;;20.99;100.00
59513;BME280;45330;51.634;5.562;2023-06-24T04:40:44;102356.28;;;22.24;100.00
59513;BME280;45330;51.634;5.562;2023-06-24T04:43:09;102347.53;;;23.04;100.00
59513;BME280;45330;51.634;5.562;2023-06-24T04:45:34;102369.56;;;23.81;100.00
59513;BME280;45330;51.634;5.562;2023-06-24T04:48:00;102372.25;;;24.49;98.31
59513;BME280;45330;51.634;5.562;2023-06-24T04:50:25;102365.88;;;24.98;91.96
59513;BME280;45330;51.634;5.562;2023-06-24T04:52:54;102363.81;;;25.46;91.29
59513;BME280;45330;51.634;5.562;2023-06-24T04:55:22;102354.63;;;25.91;84.43
59513;BME280;45330;51.634;5.562;2023-06-24T04:57:47;102365.06;;;26.34;80.61
59513;BME280;45330;51.634;5.562;2023-06-24T05:00:13;102358.63;;;26.75;76.86
59513;BME280;45330;51.634;5.562;2023-06-24T05:02:39;102371.69;;;26.98;71.08
59513;BME280;45330;51.634;5.562;2023-06-24T05:05:04;102371.28;;;27.24;69.80
59513;BME280;45330;51.634;5.562;2023-06-24T05:07:30;102360.56;;;27.41;65.03
59513;BME280;45330;51.634;5.562;2023-06-24T05:09:55;102369.31;;;27.61;62.64
59513;BME280;45330;51.634;5.562;2023-06-24T05:12:20;102370.03;;;27.48;60.34
59513;BME280;45330;51.634;5.562;2023-06-24T05:14:53;102358.97;;;27.54;61.88
59513;BME280;45330;51.634;5.562;2023-06-24T05:17:19;102368.75;;;27.71;57.77
59513;BME280;45330;51.634;5.562;2023-06-24T05:19:44;102364.25;;;27.56;55.99
59513;BME280;45330;51.634;5.562;2023-06-24T05:22:10;102349.75;;;27.60;57.15
59513;BME280;45330;51.634;5.562;2023-06-24T05:24:35;102348.53;;;27.99;56.15
59513;BME280;45330;51.634;5.562;2023-06-24T05:27:04;102353.72;;;28.65;55.33
59513;BME280;45330;51.634;5.562;2023-06-24T05:29:31;102361.28;;;28.26;54.40
59513;BME280;45330;51.634;5.562;2023-06-24T05:31:56;102370.34;;;28.39;54.22
59513;BME280;45330;51.634;5.562;2023-06-24T05:34:21;102364.03;;;28.56;54.42
59513;BME280;45330;51.634;5.562;2023-06-24T05:36:47;102381.31;;;28.67;54.04
59513;BME280;45330;51.634;5.562;2023-06-24T05:39:13;102372.56;;;28.63;52.79
59513;BME280;45330;51.634;5.562;2023-06-24T05:41:38;102359.69;;;28.70;53.01
59513;BME280;45330;51.634;5.562;2023-06-24T05:44:06;102354.84;;;28.61;52.60
59513;BME280;45330;51.634;5.562;2023-06-24T05:46:32;102358.75;;;29.16;51.92
59513;BME280;45330;51.634;5.562;2023-06-24T05:48:57;102356.00;;;29.46;51.57
59513;BME280;45330;51.634;5.562;2023-06-24T05:51:22;102361.38;;;29.75;50.44
59513;BME280;45330;51.634;5.562;2023-06-24T05:53:48;102370.16;;;29.91;49.22
59513;BME280;45330;51.634;5.562;2023-06-24T05:56:13;102369.22;;;29.64;48.30
59513;BME280;45330;51.634;5.562;2023-06-24T05:58:39;102379.63;;;29.97;49.03
59513;BME280;45330;51.634;5.562;2023-06-24T06:01:04;102374.69;;;29.76;47.43
59513;BME280;45330;51.634;5.562;2023-06-24T06:03:31;102363.97;;;29.62;47.46
59513;BME280;45330;51.634;5.562;2023-06-24T06:05:56;102369.78;;;29.98;46.49
59513;BME280;45330;51.634;5.562;2023-06-24T06:08:22;102353.03;;;30.21;45.99
59513;BME280;45330;51.634;5.562;2023-06-24T06:10:47;102356.91;;;30.44;45.16
59513;BME280;45330;51.634;5.562;2023-06-24T06:13:12;102364.34;;;30.54;45.04
59513;BME280;45330;51.634;5.562;2023-06-24T06:15:38;102380.19;;;30.71;45.00
59513;BME280;45330;51.634;5.562;2023-06-24T06:18:03;102368.97;;;30.65;43.84
59513;BME280;45330;51.634;5.562;2023-06-24T06:20:29;102365.25;;;30.80;43.52
59513;BME280;45330;51.634;5.562;2023-06-24T06:22:54;102379.84;;;31.42;41.31
59513;BME280;45330;51.634;5.562;2023-06-24T06:25:19;102379.84;;;31.42;41.46
59513;BME280;45330;51.634;5.562;2023-06-24T06:27:45;102365.00;;;31.23;41.01
59513;BME280;45330;51.634;5.562;2023-06-24T06:30:11;102385.31;;;31.53;40.76
59513;BME280;45330;51.634;5.562;2023-06-24T06:32:36;102385.22;;;31.42;40.87
59513;BME280;45330;51.634;5.562;2023-06-24T06:35:02;102386.53;;;31.23;39.85
59513;BME280;45330;51.634;5.562;2023-06-24T06:37:27;102378.31;;;30.99;40.14
59513;BME280;45330;51.634;5.562;2023-06-24T06:39:53;102382.84;;;30.99;40.34
59513;BME280;45330;51.634;5.562;2023-06-24T06:42:18;102381.47;;;31.19;40.72
59513;BME280;45330;51.634;5.562;2023-06-24T06:44:43;102381.25;;;31.09;39.87
59513;BME280;45330;51.634;5.562;2023-06-24T06:47:10;102378.81;;;30.91;39.99
59513;BME280;45330;51.634;5.562;2023-06-24T06:49:36;102386.75;;;31.07;40.69
59513;BME280;45330;51.634;5.562;2023-06-24T06:52:01;102391.16;;;30.68;40.82
59513;BME280;45330;51.634;5.562;2023-06-24T06:54:26;102387.75;;;30.92;40.97
59513;BME280;45330;51.634;5.562;2023-06-24T06:56:52;102396.88;;;30.89;40.22
59513;BME280;45330;51.634;5.562;2023-06-24T06:59:17;102401.81;;;31.61;39.80
59513;BME280;45330;51.634;5.562;2023-06-24T07:01:43;102376.47;;;31.00;38.87
59513;BME280;45330;51.634;5.562;2023-06-24T07:04:08;102402.19;;;29.21;42.01
59513;BME280;45330;51.634;5.562;2023-06-24T07:06:33;102409.00;;;27.52;44.76
59513;BME280;45330;51.634;5.562;2023-06-24T07:08:59;102413.81;;;26.18;48.83
59513;BME280;45330;51.634;5.562;2023-06-24T07:11:24;102399.84;;;25.13;52.02
59513;BME280;45330;51.634;5.562;2023-06-24T07:13:51;102407.78;;;24.48;54.59
59513;BME280;45330;51.634;5.562;2023-06-24T07:16:17;102411.19;;;23.81;55.76
59513;BME280;45330;51.634;5.562;2023-06-24T07:18:43;102419.66;;;23.43;57.54
59513;BME280;45330;51.634;5.562;2023-06-24T07:21:08;102417.16;;;23.14;57.30
59513;BME280;45330;51.634;5.562;2023-06-24T07:23:34;102407.16;;;22.93;60.90
59513;BME280;45330;51.634;5.562;2023-06-24T07:25:59;102384.75;;;22.75;61.31
59513;BME280;45330;51.634;5.562;2023-06-24T07:28:25;102415.28;;;22.89;62.43
59513;BME280;45330;51.634;5.562;2023-06-24T07:30:50;102413.81;;;22.80;62.75
59513;BME280;45330;51.634;5.562;2023-06-24T07:33:15;102413.97;;;22.74;63.28
59513;BME280;45330;51.634;5.562;2023-06-24T07:35:41;102409.94;;;22.62;62.15
59513;BME280;45330;51.634;5.562;2023-06-24T07:38:06;102418.81;;;22.61;63.67
59513;BME280;45330;51.634;5.562;2023-06-24T07:40:31;102412.81;;;22.54;61.78
59513;BME280;45330;51.634;5.562;2023-06-24T07:42:57;102413.66;;;22.56;61.72
59513;BME280;45330;51.634;5.562;2023-06-24T07:45:22;102409.75;;;22.68;62.95
59513;BME280;45330;51.634;5.562;2023-06-24T07:47:48;102413.28;;;22.69;61.62
59513;BME280;45330;51.634;5.562;2023-06-24T07:50:14;102409.50;;;22.76;62.88
59513;BME280;45330;51.634;5.562;2023-06-24T07:52:39;102399.81;;;22.75;59.96
59513;BME280;45330;51.634;5.562;2023-06-24T07:55:05;102407.72;;;22.76;60.60
59513;BME280;45330;51.634;5.562;2023-06-24T07:57:31;102394.16;;;22.86;63.44
59513;BME280;45330;51.634;5.562;2023-06-24T07:59:56;102404.56;;;22.92;60.26
59513;BME280;45330;51.634;5.562;2023-06-24T08:02:22;102408.78;;;22.98;62.32
59513;BME280;45330;51.634;5.562;2023-06-24T08:04:49;102401.59;;;23.01;60.58
59513;BME280;45330;51.634;5.562;2023-06-24T08:07:15;102398.63;;;23.10;61.41
59513;BME280;45330;51.634;5.562;2023-06-24T08:09:40;102406.88;;;23.29;60.95
59513;BME280;45330;51.634;5.562;2023-06-24T08:12:06;102402.22;;;23.36;59.71
59513;BME280;45330;51.634;5.562;2023-06-24T08:14:31;102393.28;;;23.37;57.72
59513;BME280;45330;51.634;5.562;2023-06-24T08:16:56;102400.91;;;23.48;58.23
59513;BME280;45330;51.634;5.562;2023-06-24T08:19:22;102402.63;;;23.49;56.31
59513;BME280;45330;51.634;5.562;2023-06-24T08:21:47;102397.91;;;23.57;56.57
59513;BME280;45330;51.634;5.562;2023-06-24T08:24:13;102395.19;;;23.59;56.63
59513;BME280;45330;51.634;5.562;2023-06-24T08:26:38;102396.00;;;23.61;55.40
59513;BME280;45330;51.634;5.562;2023-06-24T08:29:03;102397.41;;;23.71;55.65
59513;BME280;45330;51.634;5.562;2023-06-24T08:31:29;102394.69;;;23.73;55.50
59513;BME280;45330;51.634;5.562;2023-06-24T08:33:54;102384.22;;;23.68;54.25
59513;BME280;45330;51.634;5.562;2023-06-24T08:36:27;102390.88;;;23.80;55.12
59513;BME280;45330;51.634;5.562;2023-06-24T08:38:52;102381.81;;;23.86;55.67
59513;BME280;45330;51.634;5.562;2023-06-24T08:41:18;102386.13;;;23.90;53.73
59513;BME280;45330;51.634;5.562;2023-06-24T08:43:44;102392.06;;;23.96;55.52
59513;BME280;45330;51.634;5.562;2023-06-24T08:46:09;102381.38;;;23.98;55.07
59513;BME280;45330;51.634;5.562;2023-06-24T08:48:35;102390.09;;;24.02;52.39
59513;BME280;45330;51.634;5.562;2023-06-24T08:51:07;102365.13;;;24.06;54.35
59513;BME280;45330;51.634;5.562;2023-06-24T08:53:32;102370.16;;;24.13;52.66
59513;BME280;45330;51.634;5.562;2023-06-24T08:55:58;102381.34;;;24.22;52.01
59513;BME280;45330;51.634;5.562;2023-06-24T08:58:24;102381.03;;;24.29;52.80
59513;BME280;45330;51.634;5.562;2023-06-24T09:00:49;102370.69;;;24.22;51.39
59513;BME280;45330;51.634;5.562;2023-06-24T09:03:15;102377.41;;;24.32;50.65
59513;BME280;45330;51.634;5.562;2023-06-24T09:05:40;102382.59;;;24.35;51.38
59513;BME280;45330;51.634;5.562;2023-06-24T09:08:06;102381.63;;;24.38;51.21
59513;BME280;45330;51.634;5.562;2023-06-24T09:10:33;102375.41;;;24.37;51.26
59513;BME280;45330;51.634;5.562;2023-06-24T09:13:03;102363.97;;;24.35;50.94
59513;BME280;45330;51.634;5.562;2023-06-24T09:15:32;102380.94;;;24.55;50.54
59513;BME280;45330;51.634;5.562;2023-06-24T09:17:58;102373.66;;;24.58;51.55
59513;BME280;45330;51.634;5.562;2023-06-24T09:20:28;102363.91;;;24.59;51.25
59513;BME280;45330;51.634;5.562;2023-06-24T09:23:02;102369.00;;;24.65;48.67
59513;BME280;45330;51.634;5.562;2023-06-24T09:25:28;102371.47;;;24.70;47.73
59513;BME280;45330;51.634;5.562;2023-06-24T09:27:53;102361.13;;;24.84;49.41
59513;BME280;45330;51.634;5.562;2023-06-24T09:30:22;102363.72;;;24.86;47.94
59513;BME280;45330;51.634;5.562;2023-06-24T09:32:48;102342.50;;;24.84;47.58
59513;BME280;45330;51.634;5.562;2023-06-24T09:35:14;102336.03;;;24.90;49.64
59513;BME280;45330;51.634;5.562;2023-06-24T09:37:41;102343.22;;;25.08;48.67
59513;BME280;45330;51.634;5.562;2023-06-24T09:40:07;102337.16;;;25.05;47.66
59513;BME280;45330;51.634;5.562;2023-06-24T09:42:35;102340.56;;;25.08;46.58
59513;BME280;45330;51.634;5.562;2023-06-24T09:45:04;102331.25;;;24.98;47.23
59513;BME280;45330;51.634;5.562;2023-06-24T09:47:31;102342.41;;;25.06;49.60
59513;BME280;45330;51.634;5.562;2023-06-24T09:49:56;102341.09;;;25.16;49.94
59513;BME280;45330;51.634;5.562;2023-06-24T09:52:21;102338.97;;;25.25;49.97
59513;BME280;45330;51.634;5.562;2023-06-24T09:54:50;102336.78;;;25.34;50.78
59513;BME280;45330;51.634;5.562;2023-06-24T09:57:24;102341.34;;;25.31;46.99
59513;BME280;45330;51.634;5.562;2023-06-24T09:59:51;102341.22;;;25.34;48.07
59513;BME280;45330;51.634;5.562;2023-06-24T10:02:17;102344.00;;;25.31;47.33
59513;BME280;45330;51.634;5.562;2023-06-24T10:04:44;102335.25;;;25.27;47.74
59513;BME280;45330;51.634;5.562;2023-06-24T10:07:12;102338.13;;;25.23;48.13
59513;BME280;45330;51.634;5.562;2023-06-24T10:09:38;102336.22;;;25.26;49.09
59513;BME280;45330;51.634;5.562;2023-06-24T10:12:04;102345.63;;;25.35;48.12
59513;BME280;45330;51.634;5.562;2023-06-24T10:14:30;102330.28;;;25.20;47.96
59513;BME280;45330;51.634;5.562;2023-06-24T10:17:05;102330.00;;;25.26;48.53
59513;BME280;45330;51.634;5.562;2023-06-24T10:19:37;102313.38;;;25.21;48.27
59513;BME280;45330;51.634;5.562;2023-06-24T10:22:07;102333.81;;;25.41;47.83
59513;BME280;45330;51.634;5.562;2023-06-24T10:24:39;102329.22;;;25.44;49.46
59513;BME280;45330;51.634;5.562;2023-06-24T10:27:17;102344.41;;;25.42;48.03
59513;BME280;45330;51.634;5.562;2023-06-24T10:29:48;102332.81;;;25.43;48.54
59513;BME280;45330;51.634;5.562;2023-06-24T10:32:14;102332.53;;;25.49;49.05
59513;BME280;45330;51.634;5.562;2023-06-24T10:34:41;102319.34;;;25.46;48.87
59513;BME280;45330;51.634;5.562;2023-06-24T10:39:36;102329.53;;;25.76;49.27
59513;BME280;45330;51.634;5.562;2023-06-24T10:44:50;102318.34;;;25.68;48.07
59513;BME280;45330;51.634;5.562;2023-06-24T10:47:17;102325.72;;;25.63;48.68
59513;BME280;45330;51.634;5.562;2023-06-24T10:49:42;102322.59;;;25.72;50.94
59513;BME280;45330;51.634;5.562;2023-06-24T10:52:12;102324.44;;;25.91;51.19
59513;BME280;45330;51.634;5.562;2023-06-24T10:54:38;102309.34;;;25.90;49.07
59513;BME280;45330;51.634;5.562;2023-06-24T10:57:04;102312.97;;;25.89;48.90
59513;BME280;45330;51.634;5.562;2023-06-24T10:59:46;102309.28;;;25.91;48.87
59513;BME280;45330;51.634;5.562;2023-06-24T11:02:18;102312.88;;;25.90;46.80
59513;BME280;45330;51.634;5.562;2023-06-24T11:04:52;102314.06;;;26.04;50.34
59513;BME280;45330;51.634;5.562;2023-06-24T11:07:22;102312.03;;;26.09;49.26
59513;BME280;45330;51.634;5.562;2023-06-24T11:09:49;102305.06;;;26.06;48.88
59513;BME280;45330;51.634;5.562;2023-06-24T11:12:15;102307.25;;;26.15;48.63
59513;BME280;45330;51.634;5.562;2023-06-24T11:14:41;102301.22;;;26.12;48.64
59513;BME280;45330;51.634;5.562;2023-06-24T11:17:06;102314.00;;;26.05;47.65
59513;BME280;45330;51.634;5.562;2023-06-24T11:19:32;102303.00;;;26.11;49.94
59513;BME280;45330;51.634;5.562;2023-06-24T11:22:01;102299.28;;;25.96;49.28
59513;BME280;45330;51.634;5.562;2023-06-24T11:24:27;102296.25;;;26.04;50.65
59513;BME280;45330;51.634;5.562;2023-06-24T11:26:53;102282.84;;;25.87;48.88
59513;BME280;45330;51.634;5.562;2023-06-24T11:29:18;102296.28;;;25.83;49.54
59513;BME280;45330;51.634;5.562;2023-06-24T11:31:48;102289.59;;;25.75;50.76
59513;BME280;45330;51.634;5.562;2023-06-24T11:34:13;102275.56;;;25.71;49.86
59513;BME280;45330;51.634;5.562;2023-06-24T11:36:39;102285.19;;;25.93;50.88
59513;BME280;45330;51.634;5.562;2023-06-24T11:39:04;102288.97;;;26.08;49.91
59513;BME280;45330;51.634;5.562;2023-06-24T11:41:30;102277.84;;;25.98;48.67
59513;BME280;45330;51.634;5.562;2023-06-24T11:43:57;102284.03;;;25.98;49.59
59513;BME280;45330;51.634;5.562;2023-06-24T11:46:27;102282.47;;;26.13;48.55
59513;BME280;45330;51.634;5.562;2023-06-24T11:49:09;102278.00;;;26.14;49.72
59513;BME280;45330;51.634;5.562;2023-06-24T11:51:35;102273.72;;;26.29;49.07
59513;BME280;45330;51.634;5.562;2023-06-24T11:54:05;102261.63;;;26.22;47.34
59513;BME280;45330;51.634;5.562;2023-06-24T11:56:38;102274.88;;;26.41;50.82
59513;BME280;45330;51.634;5.562;2023-06-24T11:59:04;102253.69;;;26.38;48.82
59513;BME280;45330;51.634;5.562;2023-06-24T12:01:33;102260.19;;;26.49;50.32
59513;BME280;45330;51.634;5.562;2023-06-24T12:04:12;102261.78;;;26.53;49.73
59513;BME280;45330;51.634;5.562;2023-06-24T12:06:41;102259.81;;;26.57;48.12
59513;BME280;45330;51.634;5.562;2023-06-24T12:09:10;102255.03;;;26.64;49.96
59513;BME280;45330;51.634;5.562;2023-06-24T12:11:36;102245.91;;;26.68;50.83
59513;BME280;45330;51.634;5.562;2023-06-24T12:14:02;102249.31;;;26.72;49.61
59513;BME280;45330;51.634;5.562;2023-06-24T12:16:27;102243.22;;;26.68;50.98
59513;BME280;45330;51.634;5.562;2023-06-24T12:18:53;102250.00;;;26.58;49.63
59513;BME280;45330;51.634;5.562;2023-06-24T12:21:19;102241.13;;;26.57;51.47
59513;BME280;45330;51.634;5.562;2023-06-24T12:23:44;102255.03;;;26.64;51.77
59513;BME280;45330;51.634;5.562;2023-06-24T12:26:11;102239.09;;;26.45;49.74
59513;BME280;45330;51.634;5.562;2023-06-24T12:28:37;102243.25;;;26.33;50.59
59513;BME280;45330;51.634;5.562;2023-06-24T12:31:02;102249.75;;;26.45;49.87
59513;BME280;45330;51.634;5.562;2023-06-24T12:33:28;102225.41;;;26.51;50.16
59513;BME280;45330;51.634;5.562;2023-06-24T12:35:54;102246.94;;;26.83;49.98
59513;BME280;45330;51.634;5.562;2023-06-24T12:38:19;102242.03;;;26.75;48.06
59513;BME280;45330;51.634;5.562;2023-06-24T12:40:45;102240.44;;;26.71;49.21
59513;BME280;45330;51.634;5.562;2023-06-24T12:43:11;102227.19;;;26.68;48.07
59513;BME280;45330;51.634;5.562;2023-06-24T12:45:38;102231.16;;;26.78;48.21
59513;BME280;45330;51.634;5.562;2023-06-24T12:48:04;102230.22;;;26.79;47.46
59513;BME280;45330;51.634;5.562;2023-06-24T12:50:29;102233.25;;;26.89;47.07
59513;BME280;45330;51.634;5.562;2023-06-24T12:52:57;102222.22;;;26.79;47.26
59513;BME280;45330;51.634;5.562;2023-06-24T12:55:22;102231.53;;;26.88;48.35
59513;BME280;45330;51.634;5.562;2023-06-24T12:57:48;102233.13;;;27.08;47.74
59513;BME280;45330;51.634;5.562;2023-06-24T13:00:14;102217.72;;;27.13;48.66
59513;BME280;45330;51.634;5.562;2023-06-24T13:02:39;102230.00;;;27.33;48.63